sensor_id;sensor_type;location;lat;lon;timestamp;P1;durP1;ratioP1;P2;durP2;ratioP2
6951;SDS011;3515;50.138;8.502;2022-09-09T00:01:37;3;;;0;;
6951;SDS011;3515;50.138;8.502;2022-09-09T00:04:03;4;;;0;;
6951;SDS011;3515;50.138;8.502;2022-09-09T00:09:01;7;;;1;;
6951;SDS011;3515;50.138;8.502;2022-09-09T00:11:26;10;;;3;;
6951;SDS011;3515;50.138;8.502;2022-09-09T00:13:50;13;;;5;;
6951;SDS011;3515;50.138;8.502;2022-09-09T00:16:15;15;;;6;;
6951;SDS011;3515;50.138;8.502;2022-09-09T00:18:41;18;;;8;;
6951;SDS011;3515;50.138;8.502;2022-09-09T00:21:06;21;;;10;;
6951;SDS011;3515;50.138;8.502;2022-09-09T00:23:31;23;;;11;;
6951;SDS011;3515;50.138;8.502;2022-09-09T00:26:01;25;;;13;;
6951;SDS011;3515;50.138;8.502;2022-09-09T00:28:22;26;;;13;;
6951;SDS011;3515;50.138;8.502;2022-09-09T00:30:46;26;;;13;;
6951;SDS011;3515;50.138;8.502;2022-09-09T00:33:12;25;;;13;;
6951;SDS011;3515;50.138;8.502;2022-09-09T00:35:37;26;;;13;;
6951;SDS011;3515;50.138;8.502;2022-09-09T00:38:05;26;;;13;;
6951;SDS011;3515;50.138;8.502;2022-09-09T00:40:30;25;;;13;;
6951;SDS011;3515;50.138;8.502;2022-09-09T00:45:36;25;;;13;;
6951;SDS011;3515;50.138;8.502;2022-09-09T00:47:54;25;;;13;;
6951;SDS011;3515;50.138;8.502;2022-09-09T00:50:33;25;;;13;;
6951;SDS011;3515;50.138;8.502;2022-09-09T00:52:46;26;;;13;;
6951;SDS011;3515;50.138;8.502;2022-09-09T00:55:12;25;;;13;;
6951;SDS011;3515;50.138;8.502;2022-09-09T00:57:36;22;;;11;;
6951;SDS011;3515;50.138;8.502;2022-09-09T01:02:27;22;;;11;;
6951;SDS011;3515;50.138;8.502;2022-09-09T01:04:52;21;;;11;;
6951;SDS011;3515;50.138;8.502;2022-09-09T01:07:18;19;;;9;;
6951;SDS011;3515;50.138;8.502;2022-09-09T01:09:45;18;;;9;;
6951;SDS011;3515;50.138;8.502;2022-09-09T01:12:09;15;;;7;;
6951;SDS011;3515;50.138;8.502;2022-09-09T01:14:39;14;;;6;;
6951;SDS011;3515;50.138;8.502;2022-09-09T01:16:59;17;;;8;;
6951;SDS011;3515;50.138;8.502;2022-09-09T01:19:27;15;;;7;;
6951;SDS011;3515;50.138;8.502;2022-09-09T01:21:51;13;;;5;;
6951;SDS011;3515;50.138;8.502;2022-09-09T01:24:18;11;;;4;;
6951;SDS011;3515;50.138;8.502;2022-09-09T01:26:40;11;;;4;;
6951;SDS011;3515;50.138;8.502;2022-09-09T01:29:07;9;;;3;;
6951;SDS011;3515;50.138;8.502;2022-09-09T01:31:31;9;;;3;;
6951;SDS011;3515;50.138;8.502;2022-09-09T01:33:59;7;;;2;;
6951;SDS011;3515;50.138;8.502;2022-09-09T01:36:26;5;;;0;;
6951;SDS011;3515;50.138;8.502;2022-09-09T01:38:49;4;;;0;;
6951;SDS011;3515;50.138;8.502;2022-09-09T01:41:15;4;;;0;;
6951;SDS011;3515;50.138;8.502;2022-09-09T01:43:40;4;;;0;;
6951;SDS011;3515;50.138;8.502;2022-09-09T01:46:05;4;;;0;;
6951;SDS011;3515;50.138;8.502;2022-09-09T01:48:31;4;;;0;;
6951;SDS011;3515;50.138;8.502;2022-09-09T01:51:01;4;;;0;;
6951;SDS011;3515;50.138;8.502;2022-09-09T01:53:26;4;;;0;;
6951;SDS011;3515;50.138;8.502;2022-09-09T01:55:58;4;;;0;;
6951;SDS011;3515;50.138;8.502;2022-09-09T01:58:22;4;;;0;;
6951;SDS011;3515;50.138;8.502;2022-09-09T02:00:43;5;;;0;;
6951;SDS011;3515;50.138;8.502;2022-09-09T02:03:08;4;;;0;;
6951;SDS011;3515;50.138;8.502;2022-09-09T02:05:34;4;;;0;;
6951;SDS011;3515;50.138;8.502;2022-09-09T02:07:59;4;;;0;;
6951;SDS011;3515;50.138;8.502;2022-09-09T02:10:27;4;;;0;;
6951;SDS011;3515;50.138;8.502;2022-09-09T02:12:52;4;;;0;;
6951;SDS011;3515;50.138;8.502;2022-09-09T02:15:17;4;;;0;;
6951;SDS011;3515;50.138;8.502;2022-09-09T02:17:41;4;;;0;;
6951;SDS011;3515;50.138;8.502;2022-09-09T02:20:07;4;;;0;;
6951;SDS011;3515;50.138;8.502;2022-09-09T02:22:31;4;;;0;;
6951;SDS011;3515;50.138;8.502;2022-09-09T02:24:57;4;;;0;;
6951;SDS011;3515;50.138;8.502;2022-09-09T02:27:22;4;;;0;;
6951;SDS011;3515;50.138;8.502;2022-09-09T02:29:47;4;;;0;;
6951;SDS011;3515;50.138;8.502;2022-09-09T02:32:13;3;;;0;;
6951;SDS011;3515;50.138;8.502;2022-09-09T02:34:40;3;;;0;;
6951;SDS011;3515;50.138;8.502;2022-09-09T02:37:03;4;;;0;;
6951;SDS011;3515;50.138;8.502;2022-09-09T02:39:29;3;;;0;;
6951;SDS011;3515;50.138;8.502;2022-09-09T02:41:54;3;;;0;;
6951;SDS011;3515;50.138;8.502;2022-09-09T02:44:19;4;;;0;;
6951;SDS011;3515;50.138;8.502;2022-09-09T02:46:53;4;;;0;;
6951;SDS011;3515;50.138;8.502;2022-09-09T02:49:11;4;;;0;;
6951;SDS011;3515;50.138;8.502;2022-09-09T02:51:50;4;;;0;;
6951;SDS011;3515;50.138;8.502;2022-09-09T02:54:08;4;;;0;;
6951;SDS011;3515;50.138;8.502;2022-09-09T02:56:31;4;;;0;;
6951;SDS011;3515;50.138;8.502;2022-09-09T02:58:56;4;;;0;;
6951;SDS011;3515;50.138;8.502;2022-09-09T03:01:21;7;;;0;;
6951;SDS011;3515;50.138;8.502;2022-09-09T03:03:47;6;;;0;;
6951;SDS011;3515;50.138;8.502;2022-09-09T03:06:12;7;;;0;;
6951;SDS011;3515;50.138;8.502;2022-09-09T03:08:37;7;;;0;;
6951;SDS011;3515;50.138;8.502;2022-09-09T03:11:06;7;;;0;;
6951;SDS011;3515;50.138;8.502;2022-09-09T03:13:30;7;;;0;;
6951;SDS011;3515;50.138;8.502;2022-09-09T03:15:56;7;;;0;;
6951;SDS011;3515;50.138;8.502;2022-09-09T03:18:21;6;;;0;;
6951;SDS011;3515;50.138;8.502;2022-09-09T03:20:49;3;;;0;;
6951;SDS011;3515;50.138;8.502;2022-09-09T03:23:15;4;;;0;;
6951;SDS011;3515;50.138;8.502;2022-09-09T03:25:45;3;;;0;;
6951;SDS011;3515;50.138;8.502;2022-09-09T03:28:05;3;;;0;;
6951;SDS011;3515;50.138;8.502;2022-09-09T03:30:31;4;;;0;;
6951;SDS011;3515;50.138;8.502;2022-09-09T03:32:56;3;;;0;;
6951;SDS011;3515;50.138;8.502;2022-09-09T03:35:21;3;;;0;;
6951;SDS011;3515;50.138;8.502;2022-09-09T03:37:46;3;;;0;;
6951;SDS011;3515;50.138;8.502;2022-09-09T03:40:12;4;;;0;;
6951;SDS011;3515;50.138;8.502;2022-09-09T03:42:40;3;;;0;;
6951;SDS011;3515;50.138;8.502;2022-09-09T03:45:09;3;;;0;;
6951;SDS011;3515;50.138;8.502;2022-09-09T03:50:07;3;;;0;;
6951;SDS011;3515;50.138;8.502;2022-09-09T03:52:34;3;;;0;;
6951;SDS011;3515;50.138;8.502;2022-09-09T03:54:57;5;;;0;;
6951;SDS011;3515;50.138;8.502;2022-09-09T03:57:23;5;;;0;;
6951;SDS011;3515;50.138;8.502;2022-09-09T03:59:48;5;;;0;;
6951;SDS011;3515;50.138;8.502;2022-09-09T04:02:13;5;;;0;;
6951;SDS011;3515;50.138;8.502;2022-09-09T04:04:38;4;;;0;;
6951;SDS011;3515;50.138;8.502;2022-09-09T04:07:04;4;;;0;;
6951;SDS011;3515;50.138;8.502;2022-09-09T04:09:29;4;;;0;;
6951;SDS011;3515;50.138;8.502;2022-09-09T04:11:54;4;;;0;;
6951;SDS011;3515;50.138;8.502;2022-09-09T04:14:20;2;;;0;;
6951;SDS011;3515;50.138;8.502;2022-09-09T04:16:45;2;;;0;;
6951;SDS011;3515;50.138;8.502;2022-09-09T04:19:10;2;;;0;;
6951;SDS011;3515;50.138;8.502;2022-09-09T04:21:35;2;;;0;;
6951;SDS011;3515;50.138;8.502;2022-09-09T04:24:00;2;;;0;;
6951;SDS011;3515;50.138;8.502;2022-09-09T04:26:26;2;;;0;;
6951;SDS011;3515;50.138;8.502;2022-09-09T04:28:51;2;;;0;;
6951;SDS011;3515;50.138;8.502;2022-09-09T04:31:17;2;;;0;;
6951;SDS011;3515;50.138;8.502;2022-09-09T04:33:41;2;;;0;;
6951;SDS011;3515;50.138;8.502;2022-09-09T04:36:07;2;;;0;;
6951;SDS011;3515;50.138;8.502;2022-09-09T04:38:32;2;;;0;;
6951;SDS011;3515;50.138;8.502;2022-09-09T04:40:57;2;;;0;;
6951;SDS011;3515;50.138;8.502;2022-09-09T04:43:22;2;;;0;;
6951;SDS011;3515;50.138;8.502;2022-09-09T04:45:48;2;;;0;;
6951;SDS011;3515;50.138;8.502;2022-09-09T04:48:13;2;;;0;;
6951;SDS011;3515;50.138;8.502;2022-09-09T04:50:38;1;;;0;;
6951;SDS011;3515;50.138;8.502;2022-09-09T04:53:04;2;;;0;;
6951;SDS011;3515;50.138;8.502;2022-09-09T04:55:29;2;;;0;;
6951;SDS011;3515;50.138;8.502;2022-09-09T04:57:54;2;;;0;;
6951;SDS011;3515;50.138;8.502;2022-09-09T05:00:19;2;;;0;;
6951;SDS011;3515;50.138;8.502;2022-09-09T05:02:45;2;;;0;;
6951;SDS011;3515;50.138;8.502;2022-09-09T05:05:10;2;;;0;;
6951;SDS011;3515;50.138;8.502;2022-09-09T05:07:35;4;;;0;;
6951;SDS011;3515;50.138;8.502;2022-09-09T05:10:00;4;;;0;;
6951;SDS011;3515;50.138;8.502;2022-09-09T05:12:25;4;;;0;;
6951;SDS011;3515;50.138;8.502;2022-09-09T05:14:51;4;;;0;;
6951;SDS011;3515;50.138;8.502;2022-09-09T05:17:16;4;;;0;;
6951;SDS011;3515;50.138;8.502;2022-09-09T05:19:41;4;;;0;;
6951;SDS011;3515;50.138;8.502;2022-09-09T05:22:07;4;;;0;;
6951;SDS011;3515;50.138;8.502;2022-09-09T05:24:32;3;;;0;;
6951;SDS011;3515;50.138;8.502;2022-09-09T05:26:57;2;;;0;;
6951;SDS011;3515;50.138;8.502;2022-09-09T05:29:22;2;;;0;;
6951;SDS011;3515;50.138;8.502;2022-09-09T05:31:48;2;;;0;;
6951;SDS011;3515;50.138;8.502;2022-09-09T05:34:13;2;;;0;;
6951;SDS011;3515;50.138;8.502;2022-09-09T05:36:38;2;;;0;;
6951;SDS011;3515;50.138;8.502;2022-09-09T05:39:03;2;;;0;;
6951;SDS011;3515;50.138;8.502;2022-09-09T05:41:28;2;;;0;;
6951;SDS011;3515;50.138;8.502;2022-09-09T05:43:54;2;;;0;;
6951;SDS011;3515;50.138;8.502;2022-09-09T05:46:20;2;;;0;;
6951;SDS011;3515;50.138;8.502;2022-09-09T05:48:45;2;;;0;;
6951;SDS011;3515;50.138;8.502;2022-09-09T05:51:10;2;;;0;;
6951;SDS011;3515;50.138;8.502;2022-09-09T05:53:40;2;;;0;;
6951;SDS011;3515;50.138;8.502;2022-09-09T05:56:06;2;;;0;;
6951;SDS011;3515;50.138;8.502;2022-09-09T05:58:30;2;;;0;;
6951;SDS011;3515;50.138;8.502;2022-09-09T06:01:03;2;;;0;;
6951;SDS011;3515;50.138;8.502;2022-09-09T06:03:21;2;;;0;;
6951;SDS011;3515;50.138;8.502;2022-09-09T06:05:46;2;;;0;;
6951;SDS011;3515;50.138;8.502;2022-09-09T06:08:11;3;;;0;;
6951;SDS011;3515;50.138;8.502;2022-09-09T06:10:36;3;;;0;;
6951;SDS011;3515;50.138;8.502;2022-09-09T06:13:02;3;;;0;;
6951;SDS011;3515;50.138;8.502;2022-09-09T06:15:27;3;;;0;;
6951;SDS011;3515;50.138;8.502;2022-09-09T06:17:55;3;;;0;;
6951;SDS011;3515;50.138;8.502;2022-09-09T06:20:20;2;;;0;;
6951;SDS011;3515;50.138;8.502;2022-09-09T06:22:46;2;;;0;;
6951;SDS011;3515;50.138;8.502;2022-09-09T06:25:11;2;;;0;;
6951;SDS011;3515;50.138;8.502;2022-09-09T06:27:36;2;;;0;;
6951;SDS011;3515;50.138;8.502;2022-09-09T06:30:02;2;;;0;;
6951;SDS011;3515;50.138;8.502;2022-09-09T06:32:26;2;;;0;;
6951;SDS011;3515;50.138;8.502;2022-09-09T06:34:52;2;;;0;;
6951;SDS011;3515;50.138;8.502;2022-09-09T06:37:17;2;;;0;;
6951;SDS011;3515;50.138;8.502;2022-09-09T06:39:42;4;;;0;;
6951;SDS011;3515;50.138;8.502;2022-09-09T06:42:08;4;;;0;;
6951;SDS011;3515;50.138;8.502;2022-09-09T06:44:33;4;;;0;;
6951;SDS011;3515;50.138;8.502;2022-09-09T06:46:58;4;;;0;;
6951;SDS011;3515;50.138;8.502;2022-09-09T06:49:23;4;;;0;;
6951;SDS011;3515;50.138;8.502;2022-09-09T06:51:49;4;;;0;;
6951;SDS011;3515;50.138;8.502;2022-09-09T06:54:20;4;;;0;;
6951;SDS011;3515;50.138;8.502;2022-09-09T06:56:44;4;;;0;;
6951;SDS011;3515;50.138;8.502;2022-09-09T06:59:10;2;;;0;;
6951;SDS011;3515;50.138;8.502;2022-09-09T07:01:35;2;;;0;;
6951;SDS011;3515;50.138;8.502;2022-09-09T07:04:00;3;;;0;;
6951;SDS011;3515;50.138;8.502;2022-09-09T07:06:26;2;;;0;;
6951;SDS011;3515;50.138;8.502;2022-09-09T07:08:51;3;;;0;;
6951;SDS011;3515;50.138;8.502;2022-09-09T07:11:16;3;;;0;;
6951;SDS011;3515;50.138;8.502;2022-09-09T07:13:41;3;;;0;;
6951;SDS011;3515;50.138;8.502;2022-09-09T07:16:07;3;;;0;;
6951;SDS011;3515;50.138;8.502;2022-09-09T07:18:32;3;;;0;;
6951;SDS011;3515;50.138;8.502;2022-09-09T07:20:57;3;;;0;;
6951;SDS011;3515;50.138;8.502;2022-09-09T07:23:22;3;;;0;;
6951;SDS011;3515;50.138;8.502;2022-09-09T07:25:47;2;;;0;;
6951;SDS011;3515;50.138;8.502;2022-09-09T07:28:12;2;;;0;;
6951;SDS011;3515;50.138;8.502;2022-09-09T07:30:38;2;;;0;;
6951;SDS011;3515;50.138;8.502;2022-09-09T07:33:03;2;;;0;;
6951;SDS011;3515;50.138;8.502;2022-09-09T07:35:28;2;;;0;;
6951;SDS011;3515;50.138;8.502;2022-09-09T07:37:53;2;;;0;;
6951;SDS011;3515;50.138;8.502;2022-09-09T07:40:25;3;;;0;;
6951;SDS011;3515;50.138;8.502;2022-09-09T07:42:49;3;;;0;;
6951;SDS011;3515;50.138;8.502;2022-09-09T07:45:14;4;;;0;;
6951;SDS011;3515;50.138;8.502;2022-09-09T07:47:39;4;;;0;;
6951;SDS011;3515;50.138;8.502;2022-09-09T07:50:05;4;;;0;;
6951;SDS011;3515;50.138;8.502;2022-09-09T07:52:30;4;;;0;;
6951;SDS011;3515;50.138;8.502;2022-09-09T07:55:01;4;;;0;;
6951;SDS011;3515;50.138;8.502;2022-09-09T07:57:25;4;;;0;;
6951;SDS011;3515;50.138;8.502;2022-09-09T07:59:51;3;;;0;;
6951;SDS011;3515;50.138;8.502;2022-09-09T08:02:16;3;;;0;;
6951;SDS011;3515;50.138;8.502;2022-09-09T08:04:41;2;;;0;;
6951;SDS011;3515;50.138;8.502;2022-09-09T08:07:06;2;;;0;;
6951;SDS011;3515;50.138;8.502;2022-09-09T08:09:32;2;;;0;;
6951;SDS011;3515;50.138;8.502;2022-09-09T08:11:57;2;;;0;;
6951;SDS011;3515;50.138;8.502;2022-09-09T08:14:22;3;;;0;;
6951;SDS011;3515;50.138;8.502;2022-09-09T08:16:47;2;;;0;;
6951;SDS011;3515;50.138;8.502;2022-09-09T08:19:13;3;;;0;;
6951;SDS011;3515;50.138;8.502;2022-09-09T08:21:39;2;;;0;;
6951;SDS011;3515;50.138;8.502;2022-09-09T08:24:04;3;;;0;;
6951;SDS011;3515;50.138;8.502;2022-09-09T08:26:29;3;;;0;;
6951;SDS011;3515;50.138;8.502;2022-09-09T08:28:54;3;;;0;;
6951;SDS011;3515;50.138;8.502;2022-09-09T08:31:20;3;;;0;;
6951;SDS011;3515;50.138;8.502;2022-09-09T08:33:44;3;;;0;;
6951;SDS011;3515;50.138;8.502;2022-09-09T08:36:10;3;;;0;;
6951;SDS011;3515;50.138;8.502;2022-09-09T08:38:35;2;;;0;;
6951;SDS011;3515;50.138;8.502;2022-09-09T08:41:07;2;;;0;;
6951;SDS011;3515;50.138;8.502;2022-09-09T08:43:25;2;;;0;;
6951;SDS011;3515;50.138;8.502;2022-09-09T08:45:53;2;;;0;;
6951;SDS011;3515;50.138;8.502;2022-09-09T08:48:22;3;;;0;;
6951;SDS011;3515;50.138;8.502;2022-09-09T08:50:41;3;;;0;;
6951;SDS011;3515;50.138;8.502;2022-09-09T08:53:10;3;;;0;;
6951;SDS011;3515;50.138;8.502;2022-09-09T08:55:42;3;;;0;;
6951;SDS011;3515;50.138;8.502;2022-09-09T08:57:58;3;;;0;;
6951;SDS011;3515;50.138;8.502;2022-09-09T09:00:22;3;;;0;;
6951;SDS011;3515;50.138;8.502;2022-09-09T09:02:48;3;;;0;;
6951;SDS011;3515;50.138;8.502;2022-09-09T09:05:17;3;;;0;;
6951;SDS011;3515;50.138;8.502;2022-09-09T09:07:42;3;;;0;;
6951;SDS011;3515;50.138;8.502;2022-09-09T09:10:05;2;;;0;;
6951;SDS011;3515;50.138;8.502;2022-09-09T09:12:29;2;;;0;;
6951;SDS011;3515;50.138;8.502;2022-09-09T09:14:54;3;;;0;;
6951;SDS011;3515;50.138;8.502;2022-09-09T09:17:19;3;;;0;;
6951;SDS011;3515;50.138;8.502;2022-09-09T09:19:44;3;;;0;;
6951;SDS011;3515;50.138;8.502;2022-09-09T09:22:12;3;;;0;;
6951;SDS011;3515;50.138;8.502;2022-09-09T09:24:39;3;;;0;;
6951;SDS011;3515;50.138;8.502;2022-09-09T09:27:00;2;;;0;;
6951;SDS011;3515;50.138;8.502;2022-09-09T09:29:25;3;;;0;;
6951;SDS011;3515;50.138;8.502;2022-09-09T09:31:51;3;;;0;;
6951;SDS011;3515;50.138;8.502;2022-09-09T09:34:16;3;;;0;;
6951;SDS011;3515;50.138;8.502;2022-09-09T09:36:42;2;;;0;;
6951;SDS011;3515;50.138;8.502;2022-09-09T09:39:07;2;;;0;;
6951;SDS011;3515;50.138;8.502;2022-09-09T09:41:32;2;;;0;;
6951;SDS011;3515;50.138;8.502;2022-09-09T09:43:57;2;;;0;;
6951;SDS011;3515;50.138;8.502;2022-09-09T09:46:23;3;;;0;;
6951;SDS011;3515;50.138;8.502;2022-09-09T09:48:56;3;;;0;;
6951;SDS011;3515;50.138;8.502;2022-09-09T09:51:13;3;;;0;;
6951;SDS011;3515;50.138;8.502;2022-09-09T09:53:38;3;;;0;;
6951;SDS011;3515;50.138;8.502;2022-09-09T09:56:04;3;;;0;;
6951;SDS011;3515;50.138;8.502;2022-09-09T09:58:30;4;;;0;;
6951;SDS011;3515;50.138;8.502;2022-09-09T10:00:54;4;;;0;;
6951;SDS011;3515;50.138;8.502;2022-09-09T10:03:22;5;;;0;;
6951;SDS011;3515;50.138;8.502;2022-09-09T10:05:45;7;;;0;;
6951;SDS011;3515;50.138;8.502;2022-09-09T10:08:11;7;;;0;;
6951;SDS011;3515;50.138;8.502;2022-09-09T10:10:39;7;;;0;;
6951;SDS011;3515;50.138;8.502;2022-09-09T10:13:02;7;;;0;;
6951;SDS011;3515;50.138;8.502;2022-09-09T10:15:29;7;;;0;;
6951;SDS011;3515;50.138;8.502;2022-09-09T10:17:59;7;;;0;;
6951;SDS011;3515;50.138;8.502;2022-09-09T10:20:28;7;;;0;;
6951;SDS011;3515;50.138;8.502;2022-09-09T10:22:47;5;;;0;;
6951;SDS011;3515;50.138;8.502;2022-09-09T10:25:21;4;;;0;;
6951;SDS011;3515;50.138;8.502;2022-09-09T10:27:38;3;;;0;;
6951;SDS011;3515;50.138;8.502;2022-09-09T10:30:08;3;;;0;;
6951;SDS011;3515;50.138;8.502;2022-09-09T10:34:55;4;;;0;;
6951;SDS011;3515;50.138;8.502;2022-09-09T10:37:22;4;;;0;;
6951;SDS011;3515;50.138;8.502;2022-09-09T10:39:44;4;;;0;;
6951;SDS011;3515;50.138;8.502;2022-09-09T10:42:09;4;;;0;;
6951;SDS011;3515;50.138;8.502;2022-09-09T10:44:41;4;;;0;;
6951;SDS011;3515;50.138;8.502;2022-09-09T10:47:10;4;;;0;;
6951;SDS011;3515;50.138;8.502;2022-09-09T10:49:31;5;;;0;;
6951;SDS011;3515;50.138;8.502;2022-09-09T10:51:53;6;;;0;;
6951;SDS011;3515;50.138;8.502;2022-09-09T10:54:23;6;;;0;;
6951;SDS011;3515;50.138;8.502;2022-09-09T10:56:41;6;;;0;;
6951;SDS011;3515;50.138;8.502;2022-09-09T10:59:08;6;;;0;;
6951;SDS011;3515;50.138;8.502;2022-09-09T11:01:33;6;;;0;;
6951;SDS011;3515;50.138;8.502;2022-09-09T11:03:58;6;;;0;;
6951;SDS011;3515;50.138;8.502;2022-09-09T11:06:24;7;;;0;;
6951;SDS011;3515;50.138;8.502;2022-09-09T11:08:47;6;;;0;;
6951;SDS011;3515;50.138;8.502;2022-09-09T11:11:13;5;;;0;;
6951;SDS011;3515;50.138;8.502;2022-09-09T11:13:39;6;;;0;;
6951;SDS011;3515;50.138;8.502;2022-09-09T11:16:05;5;;;0;;
6951;SDS011;3515;50.138;8.502;2022-09-09T11:18:29;5;;;0;;
6951;SDS011;3515;50.138;8.502;2022-09-09T11:20:58;5;;;0;;
6951;SDS011;3515;50.138;8.502;2022-09-09T11:23:20;5;;;0;;
6951;SDS011;3515;50.138;8.502;2022-09-09T11:25:46;4;;;0;;
6951;SDS011;3515;50.138;8.502;2022-09-09T11:28:15;4;;;0;;
6951;SDS011;3515;50.138;8.502;2022-09-09T11:30:39;4;;;0;;
6951;SDS011;3515;50.138;8.502;2022-09-09T11:33:04;3;;;0;;
6951;SDS011;3515;50.138;8.502;2022-09-09T11:35:30;3;;;0;;
6951;SDS011;3515;50.138;8.502;2022-09-09T11:38:01;2;;;0;;
6951;SDS011;3515;50.138;8.502;2022-09-09T11:40:19;3;;;0;;
6951;SDS011;3515;50.138;8.502;2022-09-09T11:42:41;3;;;0;;
6951;SDS011;3515;50.138;8.502;2022-09-09T11:45:09;3;;;0;;
6951;SDS011;3515;50.138;8.502;2022-09-09T11:47:34;3;;;0;;
6951;SDS011;3515;50.138;8.502;2022-09-09T11:50:08;3;;;0;;
6951;SDS011;3515;50.138;8.502;2022-09-09T11:52:34;3;;;0;;
6951;SDS011;3515;50.138;8.502;2022-09-09T11:54:50;3;;;0;;
6951;SDS011;3515;50.138;8.502;2022-09-09T11:57:23;3;;;0;;
6951;SDS011;3515;50.138;8.502;2022-09-09T11:59:49;3;;;0;;
6951;SDS011;3515;50.138;8.502;2022-09-09T12:02:09;3;;;0;;
6951;SDS011;3515;50.138;8.502;2022-09-09T12:04:35;2;;;0;;
6951;SDS011;3515;50.138;8.502;2022-09-09T12:06:58;2;;;0;;
6951;SDS011;3515;50.138;8.502;2022-09-09T12:09:23;2;;;0;;
6951;SDS011;3515;50.138;8.502;2022-09-09T12:11:47;2;;;0;;
6951;SDS011;3515;50.138;8.502;2022-09-09T12:14:19;2;;;0;;
6951;SDS011;3515;50.138;8.502;2022-09-09T12:16:37;2;;;0;;
6951;SDS011;3515;50.138;8.502;2022-09-09T12:19:03;2;;;0;;
6951;SDS011;3515;50.138;8.502;2022-09-09T12:21:30;2;;;0;;
6951;SDS011;3515;50.138;8.502;2022-09-09T12:23:54;2;;;0;;
6951;SDS011;3515;50.138;8.502;2022-09-09T12:26:22;2;;;0;;
6951;SDS011;3515;50.138;8.502;2022-09-09T12:28:47;2;;;0;;
6951;SDS011;3515;50.138;8.502;2022-09-09T12:31:10;2;;;0;;
6951;SDS011;3515;50.138;8.502;2022-09-09T12:33:35;2;;;0;;
6951;SDS011;3515;50.138;8.502;2022-09-09T12:36:00;3;;;0;;
6951;SDS011;3515;50.138;8.502;2022-09-09T12:38:27;3;;;0;;
6951;SDS011;3515;50.138;8.502;2022-09-09T12:40:54;3;;;0;;
6951;SDS011;3515;50.138;8.502;2022-09-09T12:43:17;2;;;0;;
6951;SDS011;3515;50.138;8.502;2022-09-09T12:45:41;3;;;0;;
6951;SDS011;3515;50.138;8.502;2022-09-09T12:48:06;3;;;0;;
6951;SDS011;3515;50.138;8.502;2022-09-09T12:50:32;3;;;0;;
6951;SDS011;3515;50.138;8.502;2022-09-09T12:52:57;3;;;0;;
6951;SDS011;3515;50.138;8.502;2022-09-09T12:55:23;3;;;0;;
6951;SDS011;3515;50.138;8.502;2022-09-09T12:57:47;3;;;0;;
6951;SDS011;3515;50.138;8.502;2022-09-09T13:00:15;4;;;0;;
6951;SDS011;3515;50.138;8.502;2022-09-09T13:02:45;4;;;0;;
6951;SDS011;3515;50.138;8.502;2022-09-09T13:05:08;4;;;0;;
6951;SDS011;3515;50.138;8.502;2022-09-09T13:07:28;4;;;0;;
6951;SDS011;3515;50.138;8.502;2022-09-09T13:09:53;4;;;0;;
6951;SDS011;3515;50.138;8.502;2022-09-09T13:12:19;4;;;0;;
6951;SDS011;3515;50.138;8.502;2022-09-09T13:14:45;4;;;0;;
6951;SDS011;3515;50.138;8.502;2022-09-09T13:17:17;4;;;0;;
6951;SDS011;3515;50.138;8.502;2022-09-09T13:19:35;3;;;0;;
6951;SDS011;3515;50.138;8.502;2022-09-09T13:21:59;3;;;0;;
6951;SDS011;3515;50.138;8.502;2022-09-09T13:24:28;2;;;0;;
6951;SDS011;3515;50.138;8.502;2022-09-09T13:26:54;2;;;0;;
6951;SDS011;3515;50.138;8.502;2022-09-09T13:29:16;2;;;0;;
6951;SDS011;3515;50.138;8.502;2022-09-09T13:31:44;3;;;0;;
6951;SDS011;3515;50.138;8.502;2022-09-09T13:34:11;2;;;0;;
6951;SDS011;3515;50.138;8.502;2022-09-09T13:36:34;2;;;0;;
6951;SDS011;3515;50.138;8.502;2022-09-09T13:39:00;2;;;0;;
6951;SDS011;3515;50.138;8.502;2022-09-09T13:41:26;2;;;0;;
6951;SDS011;3515;50.138;8.502;2022-09-09T13:43:50;2;;;0;;
6951;SDS011;3515;50.138;8.502;2022-09-09T13:46:25;2;;;0;;
6951;SDS011;3515;50.138;8.502;2022-09-09T13:53:34;2;;;0;;
6951;SDS011;3515;50.138;8.502;2022-09-09T13:58:29;2;;;0;;
6951;SDS011;3515;50.138;8.502;2022-09-09T14:00:55;2;;;0;;
6951;SDS011;3515;50.138;8.502;2022-09-09T14:03:20;2;;;0;;
6951;SDS011;3515;50.138;8.502;2022-09-09T14:05:45;2;;;0;;
6951;SDS011;3515;50.138;8.502;2022-09-09T14:08:16;3;;;0;;
6951;SDS011;3515;50.138;8.502;2022-09-09T14:10:39;3;;;0;;
6951;SDS011;3515;50.138;8.502;2022-09-09T14:13:04;3;;;0;;
6951;SDS011;3515;50.138;8.502;2022-09-09T14:15:32;3;;;0;;
6951;SDS011;3515;50.138;8.502;2022-09-09T14:18:01;3;;;0;;
6951;SDS011;3515;50.138;8.502;2022-09-09T14:20:26;3;;;0;;
6951;SDS011;3515;50.138;8.502;2022-09-09T14:22:51;3;;;0;;
6951;SDS011;3515;50.138;8.502;2022-09-09T14:25:17;4;;;0;;
6951;SDS011;3515;50.138;8.502;2022-09-09T14:27:42;4;;;0;;
6951;SDS011;3515;50.138;8.502;2022-09-09T14:30:08;3;;;0;;
6951;SDS011;3515;50.138;8.502;2022-09-09T14:32:33;6;;;2;;
6951;SDS011;3515;50.138;8.502;2022-09-09T14:34:58;10;;;4;;
6951;SDS011;3515;50.138;8.502;2022-09-09T14:37:24;14;;;7;;
6951;SDS011;3515;50.138;8.502;2022-09-09T14:39:52;18;;;9;;
6951;SDS011;3515;50.138;8.502;2022-09-09T14:42:20;21;;;11;;
6951;SDS011;3515;50.138;8.502;2022-09-09T14:44:45;21;;;12;;
6951;SDS011;3515;50.138;8.502;2022-09-09T14:47:14;25;;;14;;
6951;SDS011;3515;50.138;8.502;2022-09-09T14:49:41;25;;;14;;
6951;SDS011;3515;50.138;8.502;2022-09-09T14:52:06;22;;;12;;
6951;SDS011;3515;50.138;8.502;2022-09-09T14:54:41;18;;;10;;
6951;SDS011;3515;50.138;8.502;2022-09-09T14:57:02;15;;;7;;
6951;SDS011;3515;50.138;8.502;2022-09-09T14:59:27;11;;;5;;
6951;SDS011;3515;50.138;8.502;2022-09-09T15:01:53;7;;;3;;
6951;SDS011;3515;50.138;8.502;2022-09-09T15:04:21;7;;;2;;
6951;SDS011;3515;50.138;8.502;2022-09-09T15:06:46;4;;;0;;
6951;SDS011;3515;50.138;8.502;2022-09-09T15:09:11;5;;;0;;
6951;SDS011;3515;50.138;8.502;2022-09-09T15:11:37;4;;;0;;
6951;SDS011;3515;50.138;8.502;2022-09-09T15:14:02;5;;;0;;
6951;SDS011;3515;50.138;8.502;2022-09-09T15:16:28;4;;;0;;
6951;SDS011;3515;50.138;8.502;2022-09-09T15:18:53;4;;;0;;
6951;SDS011;3515;50.138;8.502;2022-09-09T15:21:19;4;;;0;;
6951;SDS011;3515;50.138;8.502;2022-09-09T15:23:43;4;;;0;;
6951;SDS011;3515;50.138;8.502;2022-09-09T15:26:18;9;;;4;;
6951;SDS011;3515;50.138;8.502;2022-09-09T15:28:39;12;;;6;;
6951;SDS011;3515;50.138;8.502;2022-09-09T15:31:06;13;;;7;;
6951;SDS011;3515;50.138;8.502;2022-09-09T15:33:30;14;;;8;;
6951;SDS011;3515;50.138;8.502;2022-09-09T15:35:55;19;;;11;;
6951;SDS011;3515;50.138;8.502;2022-09-09T15:38:21;20;;;11;;
6951;SDS011;3515;50.138;8.502;2022-09-09T15:40:52;24;;;13;;
6951;SDS011;3515;50.138;8.502;2022-09-09T15:43:11;24;;;14;;
6951;SDS011;3515;50.138;8.502;2022-09-09T15:45:37;22;;;12;;
6951;SDS011;3515;50.138;8.502;2022-09-09T15:48:05;21;;;11;;
6951;SDS011;3515;50.138;8.502;2022-09-09T15:50:30;20;;;10;;
6951;SDS011;3515;50.138;8.502;2022-09-09T15:52:56;19;;;10;;
6951;SDS011;3515;50.138;8.502;2022-09-09T15:55:21;18;;;9;;
6951;SDS011;3515;50.138;8.502;2022-09-09T15:57:46;17;;;8;;
6951;SDS011;3515;50.138;8.502;2022-09-09T16:00:12;15;;;7;;
6951;SDS011;3515;50.138;8.502;2022-09-09T16:02:37;15;;;7;;
6951;SDS011;3515;50.138;8.502;2022-09-09T16:05:03;14;;;6;;
6951;SDS011;3515;50.138;8.502;2022-09-09T16:07:28;13;;;6;;
6951;SDS011;3515;50.138;8.502;2022-09-09T16:09:53;15;;;8;;
6951;SDS011;3515;50.138;8.502;2022-09-09T16:12:19;18;;;10;;
6951;SDS011;3515;50.138;8.502;2022-09-09T16:14:44;18;;;10;;
6951;SDS011;3515;50.138;8.502;2022-09-09T16:17:09;19;;;10;;
6951;SDS011;3515;50.138;8.502;2022-09-09T16:19:35;19;;;10;;
6951;SDS011;3515;50.138;8.502;2022-09-09T16:22:00;19;;;10;;
6951;SDS011;3515;50.138;8.502;2022-09-09T16:24:25;19;;;10;;
6951;SDS011;3515;50.138;8.502;2022-09-09T16:26:51;18;;;10;;
6951;SDS011;3515;50.138;8.502;2022-09-09T16:29:17;19;;;10;;
6951;SDS011;3515;50.138;8.502;2022-09-09T16:31:42;16;;;8;;
6951;SDS011;3515;50.138;8.502;2022-09-09T16:34:07;15;;;8;;
6951;SDS011;3515;50.138;8.502;2022-09-09T16:36:33;14;;;8;;
6951;SDS011;3515;50.138;8.502;2022-09-09T16:38:58;14;;;8;;
6951;SDS011;3515;50.138;8.502;2022-09-09T16:41:23;14;;;8;;
6951;SDS011;3515;50.138;8.502;2022-09-09T16:43:52;14;;;7;;
6951;SDS011;3515;50.138;8.502;2022-09-09T16:46:14;15;;;7;;
6951;SDS011;3515;50.138;8.502;2022-09-09T16:48:39;15;;;7;;
6951;SDS011;3515;50.138;8.502;2022-09-09T16:51:05;15;;;7;;
6951;SDS011;3515;50.138;8.502;2022-09-09T16:53:30;14;;;7;;